Yuma, AZ

10:36 AM MST on August 20, 2014 (GMT -0700)
Caballero Park | Change Station
CLOSE
Current Station
Personal Weather Station
Location: Yuma, AZ
Elevation: 200 ft
Nearby Weather Stations

Elev 200 ft 32.67 °N, 114.63 °W | Updated 1 minute ago

Mostly Cloudy
Mostly Cloudy
94.3 °F
Feels Like 97 °F
N
6.7
Wind Variable Wind from SSE

Today
High -- | Low -- °F
--% Chance of Precip.
Yesterday
High -- | Low -- °F
Precip. -- in
6:05 AM 7:17 PM
Waning Crescent, 20% visible
Pressure 29.83 in
Visibility 10.0 miles
Clouds Scattered Clouds 10000 ft
Mostly Cloudy 15000 ft
Heat Index 97 °F
Dew Point 66 °F
Humidity 39%
Rainfall 0.00 in
Snow Depth Not available.
UV 4 out of 12
Pollen 6.60 out of 12
Air Quality Not available.
Flu Activity Not available.
METAR KNYL 201657Z 15010KT 10SM SCT100 BKN150 34/16 A2984 RMK AO2 SLP102 T03390156

More Conditions Fewer Conditions

Pressure 29.83 in
Visibility 10.0 miles
Clouds Scattered Clouds 10000 ft
Mostly Cloudy 15000 ft
Heat Index 97 °F
Dew Point 66 °F
Humidity 39%
Rainfall 0.00 in
Snow Depth Not available.
UV 4 out of 12
Pollen 6.60 out of 12
Air Quality Not available.
Flu Activity Not available.
METAR KNYL 201657Z 15010KT 10SM SCT100 BKN150 34/16 A2984 RMK AO2 SLP102 T03390156

More Conditions Fewer Conditions

10-Day Weather Forecast

Almanac

Astronomy

Aug. 20, 2014 Rise Set
Actual Time 6:05 AM MST 7:17 PM MST
Civil Twilight 5:39 AM MST 7:43 PM MST
Nautical Twilight 5:09 AM MST 8:13 PM MST
Astronomical Twilight 4:37 AM MST 8:45 PM MST
Moon 1:54 AM MST 4:00 PM MST
Length of Visible Light 14h 03m
Length of Day
13h 12m
Tomorrow will be 1m 50s shorter.
Waning Crescent, 20% of the Moon is Illuminated
Today
Waning Crescent
Aug 25
New
Sep 2
First Quarter
Sep 8
Full
Sep 15
Last Quarter

Today's Extremes

State Highs State Lows

Community

WunderPhotos

Upload Photos

1,745,698 photos uploaded!

WunderBlogs® & News

By Dr. Jeff Masters
Director of Meteorology, Weather Underground
By Kari Strenfel
Meteorologist, Weather Underground
By Christopher C. Burt
Weather Historian, Weather Underground
August 20, 2014
August 20, 2014
August 20, 2014

Nearby

Snow Depth

Station Depth Elevation
White Horse Lake 0 in 7180 ft
Workman Creek 2 in 6900 ft
Mormon Mountain 0 in 7500 ft
Promontory 0 in 7930 ft
Snowslide Canyon 1 in 9730 ft

Earthquake Activity

City Distance Mag. Time & Date
Yucca Valley, California 151 miles 3.8 8:57 PM MST
2014-08-14
Alberto Oviedo Mota, Mexico 49 miles 2.8 3:03 PM MST
2014-08-14
Salton City, California 85 miles 2.6 6:58 AM MST
2014-08-14
Minimum magnitude displayed is 2.5.

Coastal Water Temperatures

Place Temperature
No Stations Reporting

Nearby Weather Stations